Time;durP1;ratioP1;P1;durP2;ratioP2;P2;SDS_P1;SDS_P2;PMS_P1;PMS_P2;Temp;Humidity;BMP_temperature;BMP_pressure;BME280_temperature;BME280_humidity;BME280_pressure;Samples;Min_cycle;Max_cycle;Signal;HPM_P1;HPM_P2
2023/12/10 00:00:09;;;;;;;26.15;4.85;;;;;;;10.32;74.86;99661.72;3607344;39;20794;-65
2023/12/10 00:02:35;;;;;;;24.67;5.22;;;;;;;10.33;75.11;99658.06;3609201;39;20131;-65
2023/12/10 00:05:01;;;;;;;25.60;6.45;;;;;;;10.34;74.45;99654.41;3610180;39;20051;-65
2023/12/10 00:07:27;;;;;;;27.17;5.25;;;;;;;10.39;74.05;99652.19;3607734;39;20047;-65
2023/12/10 00:09:53;;;;;;;25.63;6.43;;;;;;;10.43;73.78;99663.56;3605944;39;20296;-65
2023/12/10 00:12:18;;;;;;;24.88;5.32;;;;;;;10.47;73.64;99661.50;3606954;39;20058;-65
2023/12/10 00:14:49;;;;;;;28.38;6.00;;;;;;;10.50;73.37;99662.09;3608899;39;20059;-65
2023/12/10 00:17:15;;;;;;;30.38;5.40;;;;;;;10.52;73.84;99664.66;3609547;39;20043;-66
2023/12/10 00:19:41;;;;;;;25.65;5.55;;;;;;;10.55;73.09;99669.78;3606071;39;20103;-65
2023/12/10 00:22:06;;;;;;;30.02;5.90;;;;;;;10.53;73.11;99672.59;3605284;39;20052;-65
2023/12/10 00:24:32;;;;;;;23.70;5.93;;;;;;;10.53;73.33;99659.19;3605580;39;20544;-65
2023/12/10 00:26:58;;;;;;;27.38;5.57;;;;;;;10.56;72.98;99668.78;3608884;39;20055;-65
2023/12/10 00:29:23;;;;;;;20.80;5.05;;;;;;;10.55;72.70;99677.84;3608170;39;20423;-65
2023/12/10 00:31:49;;;;;;;20.92;5.28;;;;;;;10.59;72.38;99690.06;3606050;39;20051;-65
2023/12/10 00:34:15;;;;;;;22.40;4.82;;;;;;;10.53;72.41;99672.59;3610552;39;20063;-65
2023/12/10 00:36:41;;;;;;;23.92;4.53;;;;;;;10.57;72.19;99686.66;3607115;39;20066;-65
2023/12/10 00:39:06;;;;;;;25.35;5.05;;;;;;;10.57;72.36;99679.44;3609528;39;20059;-65
2023/12/10 00:41:32;;;;;;;20.55;5.28;;;;;;;10.56;73.02;99698.34;3606217;39;20062;-65
2023/12/10 00:43:58;;;;;;;29.20;5.25;;;;;;;10.50;73.28;99682.72;3608455;39;20063;-66
2023/12/10 00:46:24;;;;;;;24.85;5.07;;;;;;;10.47;73.35;99685.69;3607796;39;20090;-65
2023/12/10 00:48:49;;;;;;;22.10;4.68;;;;;;;10.47;73.83;99685.69;3606769;39;20055;-65
2023/12/10 00:51:22;;;;;;;23.90;5.00;;;;;;;10.50;73.05;99690.78;3608073;39;20070;-65
2023/12/10 00:53:50;;;;;;;18.42;4.47;;;;;;;10.45;72.68;99694.69;3608520;39;20119;-65
2023/12/10 00:56:16;;;;;;;24.30;4.60;;;;;;;10.16;72.84;99656.69;3611002;39;20050;-65
2023/12/10 00:58:43;;;;;;;18.42;4.55;;;;;;;10.46;72.02;99711.66;3608008;39;20047;-65
2023/12/10 01:01:08;;;;;;;18.13;3.95;;;;;;;10.42;72.85;99713.75;3606583;39;20053;-65
2023/12/10 01:03:35;;;;;;;19.65;4.85;;;;;;;10.41;72.36;99708.50;3604024;39;20095;-65
2023/12/10 01:06:05;;;;;;;19.67;4.15;;;;;;;10.36;73.03;99719.59;3607473;39;20052;-65
2023/12/10 01:08:31;;;;;;;17.55;4.68;;;;;;;10.34;73.74;99724.25;3606560;39;20090;-65
2023/12/10 01:11:00;;;;;;;23.17;4.50;;;;;;;10.31;74.48;99729.88;3609299;39;20305;-64
2023/12/10 01:13:26;;;;;;;18.35;3.72;;;;;;;10.29;74.19;99726.44;3603993;39;20059;-64
2023/12/10 01:15:57;;;;;;;19.23;4.70;;;;;;;10.25;74.33;99724.94;3604416;39;20089;-65
2023/12/10 01:18:23;;;;;;;19.85;4.45;;;;;;;10.22;75.72;99726.03;3605353;39;20108;-65
2023/12/10 01:20:49;;;;;;;21.05;4.53;;;;;;;10.16;75.22;99723.81;3604673;39;20078;-64
2023/12/10 01:23:15;;;;;;;20.05;4.20;;;;;;;10.10;75.95;99713.56;3605757;39;20401;-64
2023/12/10 01:25:42;;;;;;;21.15;3.50;;;;;;;10.14;75.10;99725.75;3606939;39;20067;-64
2023/12/10 01:28:10;;;;;;;19.63;4.45;;;;;;;10.15;75.25;99726.66;3604622;39;20058;-64
2023/12/10 01:30:36;;;;;;;21.13;4.60;;;;;;;10.14;74.63;99727.59;3604695;39;20095;-64
2023/12/10 01:33:02;;;;;;;19.67;4.28;;;;;;;10.20;73.50;99736.03;3607200;39;20059;-64
2023/12/10 01:35:29;;;;;;;16.23;3.63;;;;;;;10.23;74.12;99759.13;3604548;39;20098;-65
2023/12/10 01:37:55;;;;;;;21.90;4.15;;;;;;;10.26;72.48;99753.53;3605295;39;20063;-65
2023/12/10 01:40:21;;;;;;;15.63;4.03;;;;;;;10.27;73.75;99754.38;3603844;39;20059;-64
2023/12/10 01:42:47;;;;;;;19.45;4.57;;;;;;;10.25;73.60;99767.91;3605276;39;20128;-65
2023/12/10 01:45:13;;;;;;;21.83;3.72;;;;;;;10.22;74.54;99770.84;3606054;39;20087;-65
2023/12/10 01:47:43;;;;;;;21.02;4.40;;;;;;;10.16;74.83;99769.47;3607623;39;20055;-65
2023/12/10 01:50:15;;;;;;;24.00;3.88;;;;;;;10.07;75.36;99755.91;3605602;39;20063;-66
2023/12/10 01:52:44;;;;;;;21.45;3.88;;;;;;;10.05;75.68;99782.84;3605040;39;20833;-66
2023/12/10 01:55:12;;;;;;;18.45;3.70;;;;;;;9.99;75.25;99783.34;3605374;39;20077;-66
2023/12/10 01:57:41;;;;;;;17.58;4.00;;;;;;;9.92;76.55;99766.84;3604608;39;20051;-66
2023/12/10 02:00:08;;;;;;;25.58;4.03;;;;;;;9.88;76.09;99781.47;3605211;39;20074;-66
2023/12/10 02:02:36;;;;;;;19.55;3.80;;;;;;;9.77;76.76;99776.06;3607184;39;20098;-66
2023/12/10 02:05:07;;;;;;;21.80;4.68;;;;;;;9.75;76.97;99788.75;3603694;39;20095;-66
2023/12/10 02:07:33;;;;;;;21.63;3.78;;;;;;;9.69;77.79;99786.50;3604967;39;20372;-66
2023/12/10 02:09:59;;;;;;;19.35;3.70;;;;;;;9.62;79.36;99790.63;3604547;39;20099;-66
2023/12/10 02:12:27;;;;;;;18.73;3.72;;;;;;;9.57;78.54;99784.75;3607087;39;20360;-65
2023/12/10 02:14:54;;;;;;;21.05;3.22;;;;;;;9.53;79.49;99778.75;3601019;39;20055;-66
2023/12/10 02:17:21;;;;;;;17.50;3.97;;;;;;;9.47;80.05;99796.16;3607984;39;20311;-65
2023/12/10 02:19:47;;;;;;;16.88;3.90;;;;;;;9.42;80.42;99787.59;3610587;39;20087;-64
2023/12/10 02:22:20;;;;;;;18.88;3.38;;;;;;;9.43;80.37;99778.56;3606667;39;20066;-64
2023/12/10 02:24:54;;;;;;;22.90;3.88;;;;;;;9.33;80.93;99774.00;3608888;39;20078;-65
2023/12/10 02:27:21;;;;;;;21.98;3.58;;;;;;;9.31;80.36;99787.53;3604999;39;20262;-65
2023/12/10 02:29:49;;;;;;;14.77;3.50;;;;;;;9.37;80.63;99792.44;3603484;39;20071;-64
2023/12/10 02:32:15;;;;;;;23.08;3.78;;;;;;;9.34;80.14;99792.66;3610709;39;20052;-64
2023/12/10 02:34:41;;;;;;;15.48;3.45;;;;;;;9.26;79.39;99781.63;3607486;39;20103;-64
2023/12/10 02:37:07;;;;;;;19.88;4.03;;;;;;;9.36;79.40;99797.94;3604256;39;20434;-64
2023/12/10 02:39:32;;;;;;;18.45;3.95;;;;;;;9.41;78.86;99798.44;3604707;39;20055;-65
2023/12/10 02:41:58;;;;;;;20.88;3.55;;;;;;;9.45;78.23;99800.78;3604642;39;20372;-65
2023/12/10 02:44:23;;;;;;;16.73;3.53;;;;;;;9.45;77.58;99800.78;3607878;39;20054;-65
2023/12/10 02:46:50;;;;;;;15.00;3.60;;;;;;;9.46;77.50;99793.59;3606783;39;20047;-64
2023/12/10 02:49:16;;;;;;;18.08;3.88;;;;;;;9.45;77.55;99795.44;3614136;39;20047;-64
2023/12/10 02:51:42;;;;;;;17.20;3.53;;;;;;;9.27;77.03;99780.69;3608241;39;20066;-65
2023/12/10 02:54:08;;;;;;;18.15;3.47;;;;;;;9.52;76.25;99811.91;3606502;39;20091;-65
2023/12/10 02:56:34;;;;;;;13.77;3.28;;;;;;;9.58;76.18;99815.94;3608089;39;20051;-65
2023/12/10 02:59:00;;;;;;;19.05;3.83;;;;;;;9.57;75.94;99809.72;3609313;39;20043;-65
2023/12/10 03:01:27;;;;;;;15.00;3.47;;;;;;;9.57;76.36;99807.06;3601666;39;20457;-65
2023/12/10 03:03:53;;;;;;;13.75;3.08;;;;;;;9.59;74.80;99825.72;3609883;39;20059;-65
2023/12/10 03:06:18;;;;;;;14.35;3.30;;;;;;;9.59;74.90;99820.38;3608258;39;20132;-64
2023/12/10 03:08:44;;;;;;;20.08;3.58;;;;;;;9.58;75.12;99815.94;3607274;39;20059;-64
2023/12/10 03:11:10;;;;;;;21.65;3.75;;;;;;;9.63;74.17;99832.59;3611207;39;20059;-64
2023/12/10 03:13:35;;;;;;;19.55;4.03;;;;;;;9.64;74.70;99831.59;3610616;39;20290;-65
2023/12/10 03:16:01;;;;;;;16.48;3.30;;;;;;;9.62;75.31;99831.72;3610039;39;20074;-65
2023/12/10 03:18:28;;;;;;;12.30;2.80;;;;;;;9.67;75.08;99836.75;3609281;39;20110;-64
2023/12/10 03:20:53;;;;;;;17.67;3.40;;;;;;;9.73;74.18;99841.66;3607671;39;20155;-65
2023/12/10 03:23:19;;;;;;;20.58;3.80;;;;;;;9.73;74.38;99831.78;3610956;39;20379;-65
2023/12/10 03:25:45;;;;;;;19.23;4.05;;;;;;;9.75;73.64;99845.09;3606965;39;20123;-65
2023/12/10 03:28:10;;;;;;;18.42;3.95;;;;;;;9.65;73.69;99825.28;3607110;39;20051;-64
2023/12/10 03:30:36;;;;;;;16.63;3.53;;;;;;;9.81;73.35;99858.06;3607213;39;20059;-65
2023/12/10 03:33:02;;;;;;;15.73;3.33;;;;;;;9.86;73.49;99874.66;3607754;39;20078;-65
2023/12/10 03:35:27;;;;;;;15.13;3.60;;;;;;;9.91;72.51;99868.97;3609532;39;20071;-65
2023/12/10 03:37:53;;;;;;;18.48;3.85;;;;;;;9.93;72.09;99869.72;3607459;39;20067;-64
2023/12/10 03:40:19;;;;;;;20.15;3.60;;;;;;;9.98;71.46;99873.75;3612760;39;20076;-64
2023/12/10 03:42:44;;;;;;;17.25;3.72;;;;;;;9.98;71.64;99865.69;3608876;39;20104;-64
2023/12/10 03:45:10;;;;;;;14.43;3.35;;;;;;;10.00;71.67;99874.50;3610890;39;20063;-64
2023/12/10 03:47:36;;;;;;;14.93;3.50;;;;;;;10.04;70.59;99868.91;3611814;39;20307;-65
2023/12/10 03:50:03;;;;;;;14.50;3.53;;;;;;;10.07;70.61;99888.31;3607924;39;20269;-64
2023/12/10 03:52:29;;;;;;;16.95;3.65;;;;;;;10.06;69.63;99870.50;3611670;39;20065;-64
2023/12/10 03:54:55;;;;;;;16.98;3.92;;;;;;;10.08;70.54;99865.88;3607202;39;20062;-64
2023/12/10 03:57:21;;;;;;;17.70;3.42;;;;;;;10.15;69.78;99874.34;3609275;39;20050;-65
2023/12/10 03:59:47;;;;;;;14.60;4.07;;;;;;;10.17;69.81;99886.66;3610760;39;20063;-65
2023/12/10 04:02:13;;;;;;;13.45;3.50;;;;;;;10.12;69.30;99879.94;3613554;39;20055;-65
2023/12/10 04:04:39;;;;;;;18.05;4.03;;;;;;;10.22;69.41;99903.28;3608727;39;20416;-64
2023/12/10 04:07:04;;;;;;;14.48;3.53;;;;;;;10.22;69.12;99887.19;3607154;39;20357;-65
2023/12/10 04:09:30;;;;;;;13.85;3.45;;;;;;;10.11;68.70;99875.53;3605964;39;20078;-64
2023/12/10 04:11:56;;;;;;;16.10;3.70;;;;;;;10.22;69.18;99902.44;3608410;39;20132;-64
2023/12/10 04:14:23;;;;;;;15.43;3.20;;;;;;;10.24;68.54;99897.78;3610733;39;20360;-64
2023/12/10 04:16:48;;;;;;;15.40;3.42;;;;;;;10.00;68.90;99850.34;3609956;39;20066;-63
2023/12/10 04:19:14;;;;;;;15.85;3.03;;;;;;;10.23;68.93;99902.31;3611869;39;20051;-64
2023/12/10 04:21:40;;;;;;;17.23;3.50;;;;;;;10.26;68.11;99897.69;3608654;39;20083;-64
2023/12/10 04:24:05;;;;;;;17.75;3.42;;;;;;;10.27;68.33;99913.72;3608025;39;20063;-64
2023/12/10 04:26:31;;;;;;;16.63;3.65;;;;;;;10.28;68.64;99895.78;3607101;39;20071;-64
2023/12/10 04:28:57;;;;;;;13.10;2.92;;;;;;;10.27;68.59;99911.03;3608222;39;20079;-64
2023/12/10 04:31:22;;;;;;;13.00;3.17;;;;;;;10.24;68.39;99916.59;3610500;39;20061;-64
2023/12/10 04:33:48;;;;;;;19.45;4.35;;;;;;;10.29;68.15;99930.59;3608969;39;20429;-64
2023/12/10 04:36:14;;;;;;;15.10;3.70;;;;;;;10.31;67.80;99931.34;3611308;39;20051;-65
2023/12/10 04:38:40;;;;;;;16.35;3.55;;;;;;;10.35;66.69;99946.25;3607469;39;20071;-64
2023/12/10 04:41:06;;;;;;;13.13;3.45;;;;;;;10.38;67.01;99950.53;3610485;39;20348;-64
2023/12/10 04:43:31;;;;;;;17.42;3.60;;;;;;;10.40;66.57;99948.56;3612724;39;20059;-64
2023/12/10 04:45:58;;;;;;;15.38;3.95;;;;;;;10.41;66.87;99963.72;3610198;39;20055;-64
2023/12/10 04:48:24;;;;;;;11.93;3.03;;;;;;;10.42;65.94;99947.47;3610090;39;20058;-64
2023/12/10 04:50:51;;;;;;;16.65;3.30;;;;;;;10.43;65.77;99959.97;3606284;39;20164;-65
2023/12/10 04:53:17;;;;;;;14.85;3.08;;;;;;;10.40;66.06;99953.94;3607943;39;20066;-64
2023/12/10 04:55:43;;;;;;;16.27;3.95;;;;;;;10.24;66.14;99932.72;3610256;39;20050;-64
2023/12/10 04:58:09;;;;;;;16.52;3.38;;;;;;;10.46;65.68;99974.97;3609584;39;20039;-64
2023/12/10 05:00:35;;;;;;;17.85;4.03;;;;;;;10.39;65.81;99977.25;3609907;39;20496;-64
2023/12/10 05:03:01;;;;;;;19.73;4.47;;;;;;;10.48;66.05;99980.25;3609999;39;20075;-64
2023/12/10 05:05:26;;;;;;;19.45;3.53;;;;;;;10.49;66.15;99985.50;3607839;39;20062;-65
2023/12/10 05:07:52;;;;;;;13.73;3.58;;;;;;;10.47;65.50;100000.03;3610466;39;20066;-64
2023/12/10 05:10:18;;;;;;;16.38;3.58;;;;;;;10.44;66.26;100007.34;3608050;39;20059;-65
2023/12/10 05:12:44;;;;;;;18.15;3.67;;;;;;;10.49;65.41;100022.25;3606860;39;20086;-64
2023/12/10 05:15:09;;;;;;;14.93;3.38;;;;;;;10.49;66.12;100017.75;3609144;39;20057;-65
2023/12/10 05:17:35;;;;;;;18.33;3.65;;;;;;;10.47;66.77;100024.22;3609312;39;20272;-65
2023/12/10 05:20:02;;;;;;;15.27;3.20;;;;;;;10.44;66.43;100026.16;3607615;39;20058;-65
2023/12/10 05:22:28;;;;;;;17.77;3.55;;;;;;;10.46;66.48;100017.97;3608220;39;20113;-64
2023/12/10 05:24:54;;;;;;;19.15;3.65;;;;;;;10.43;66.33;100013.69;3608734;39;20071;-64
2023/12/10 05:27:19;;;;;;;20.08;3.83;;;;;;;10.44;65.57;100023.47;3606644;39;20411;-65
2023/12/10 05:29:45;;;;;;;18.05;3.78;;;;;;;10.48;65.72;100009.81;3607546;39;20050;-65
2023/12/10 05:32:11;;;;;;;15.35;2.95;;;;;;;10.49;65.41;100035.69;3609555;39;20051;-65
2023/12/10 05:34:36;;;;;;;16.27;4.25;;;;;;;10.53;65.43;100047.91;3608099;39;20066;-64
2023/12/10 05:37:02;;;;;;;18.38;3.70;;;;;;;10.52;66.08;100060.50;3609153;39;20399;-64
2023/12/10 05:39:28;;;;;;;18.17;3.60;;;;;;;10.54;65.68;100074.69;3606552;39;20051;-64
2023/12/10 05:41:53;;;;;;;15.90;3.60;;;;;;;10.57;65.49;100079.00;3606655;39;20058;-65
2023/12/10 05:44:19;;;;;;;16.75;3.55;;;;;;;10.60;64.96;100081.47;3608734;39;20315;-65
2023/12/10 05:46:45;;;;;;;15.65;3.85;;;;;;;10.58;65.22;100073.50;3605012;39;20224;-65
2023/12/10 05:49:11;;;;;;;16.70;3.70;;;;;;;10.53;65.51;100062.25;3605428;39;20095;-65
2023/12/10 05:51:36;;;;;;;20.10;4.25;;;;;;;10.58;65.33;100080.69;3603999;39;20058;-65
2023/12/10 05:54:02;;;;;;;19.25;3.47;;;;;;;10.61;65.24;100075.09;3605194;39;20055;-65
2023/12/10 05:56:28;;;;;;;16.83;3.88;;;;;;;10.61;65.32;100080.47;3605382;39;20315;-65
2023/12/10 05:58:54;;;;;;;18.48;3.88;;;;;;;10.60;64.80;100090.38;3605137;39;20072;-64
2023/12/10 06:01:20;;;;;;;15.68;3.85;;;;;;;10.64;65.29;100099.06;3603758;39;20318;-64
2023/12/10 06:03:45;;;;;;;19.60;3.97;;;;;;;10.64;65.66;100107.13;3603292;39;20074;-65
2023/12/10 06:06:12;;;;;;;13.60;3.38;;;;;;;10.64;64.87;100123.25;3602535;39;20067;-65
2023/12/10 06:08:37;;;;;;;17.55;3.97;;;;;;;10.62;65.77;100127.88;3602029;39;20054;-64
2023/12/10 06:11:03;;;;;;;16.92;3.72;;;;;;;10.61;65.64;100123.47;3604972;39;20059;-65
2023/12/10 06:13:29;;;;;;;19.42;3.13;;;;;;;10.59;65.33;100114.66;3602936;39;20402;-65
2023/12/10 06:15:56;;;;;;;16.23;3.58;;;;;;;10.61;65.41;100128.84;3604283;39;20107;-64
2023/12/10 06:18:22;;;;;;;17.17;4.25;;;;;;;10.60;65.50;100136.06;3603529;39;20135;-65
2023/12/10 06:20:47;;;;;;;20.75;4.07;;;;;;;10.62;65.43;100130.56;3604165;39;20063;-65
2023/12/10 06:23:13;;;;;;;15.32;3.25;;;;;;;10.62;65.51;100123.34;3604765;39;20135;-65
2023/12/10 06:25:39;;;;;;;15.52;3.22;;;;;;;10.61;65.67;100155.72;3603655;39;20096;-64
2023/12/10 06:28:05;;;;;;;22.15;3.60;;;;;;;10.61;65.37;100158.41;3604256;39;20122;-65
2023/12/10 06:30:31;;;;;;;15.60;3.47;;;;;;;10.61;65.96;100163.78;3607524;39;20059;-64
2023/12/10 06:32:56;;;;;;;13.82;4.32;;;;;;;10.60;65.51;100171.00;3605259;39;20082;-64
2023/12/10 06:35:22;;;;;;;19.08;3.72;;;;;;;10.59;65.64;100174.66;3607382;39;20047;-64
2023/12/10 06:37:48;;;;;;;20.20;3.97;;;;;;;10.59;65.09;100190.78;3598392;39;20067;-64
2023/12/10 06:40:14;;;;;;;17.55;3.72;;;;;;;10.58;65.96;100167.56;3607685;39;20132;-65
2023/12/10 06:42:40;;;;;;;13.65;3.55;;;;;;;10.57;66.13;100168.53;3606598;39;20298;-64
2023/12/10 06:45:06;;;;;;;15.73;3.92;;;;;;;10.59;65.99;100173.78;3605353;39;20071;-64
2023/12/10 06:47:33;;;;;;;15.80;3.30;;;;;;;10.58;65.68;100188.19;3604769;39;20059;-63
2023/12/10 06:49:58;;;;;;;16.50;3.50;;;;;;;10.60;65.01;100202.41;3606437;39;20402;-64
2023/12/10 06:52:24;;;;;;;15.93;3.47;;;;;;;10.58;65.81;100204.31;3606453;39;20087;-64
2023/12/10 06:54:49;;;;;;;19.55;3.72;;;;;;;10.57;65.40;100218.75;3604741;39;20063;-64
2023/12/10 06:57:15;;;;;;;15.00;3.92;;;;;;;10.58;65.96;100228.50;3606930;39;20403;-64
2023/12/10 06:59:41;;;;;;;19.50;3.80;;;;;;;10.58;65.30;100231.19;3604387;39;20079;-64
2023/12/10 07:02:06;;;;;;;20.42;3.75;;;;;;;10.56;65.55;100239.38;3606839;39;20066;-64
2023/12/10 07:04:33;;;;;;;16.13;3.33;;;;;;;10.49;66.25;100218.41;3604642;39;20091;-63
2023/12/10 07:06:58;;;;;;;18.17;3.65;;;;;;;10.54;65.97;100230.56;3603718;39;20090;-64
2023/12/10 07:09:24;;;;;;;17.70;3.55;;;;;;;10.55;65.97;100236.78;3607733;39;20335;-64
2023/12/10 07:11:49;;;;;;;19.67;3.72;;;;;;;10.53;66.34;100244.09;3608770;39;20300;-64
2023/12/10 07:14:15;;;;;;;19.33;4.15;;;;;;;10.50;65.98;100247.00;3607161;39;20051;-68
2023/12/10 07:16:41;;;;;;;20.75;4.20;;;;;;;10.35;65.92;100231.00;3605507;39;20066;-64
2023/12/10 07:19:07;;;;;;;15.43;3.47;;;;;;;10.53;65.62;100252.16;3606708;39;20069;-63
2023/12/10 07:21:32;;;;;;;14.85;3.50;;;;;;;10.51;65.53;100254.13;3605631;39;20054;-64
2023/12/10 07:23:58;;;;;;;16.35;3.45;;;;;;;10.50;66.23;100249.69;3605767;39;20131;-64
2023/12/10 07:26:25;;;;;;;19.02;3.58;;;;;;;10.47;65.56;100261.53;3606534;39;20054;-63
2023/12/10 07:28:52;;;;;;;14.82;3.70;;;;;;;10.48;66.24;100275.81;3605822;39;20097;-63
2023/12/10 07:31:18;;;;;;;18.67;3.38;;;;;;;10.47;66.16;100282.19;3607320;39;20061;-63
2023/12/10 07:33:44;;;;;;;14.77;3.55;;;;;;;10.28;66.10;100261.97;3605076;39;20065;-64
2023/12/10 07:36:11;;;;;;;12.88;3.75;;;;;;;10.22;66.29;100248.94;3608480;39;20071;-63
2023/12/10 07:38:38;;;;;;;19.20;4.07;;;;;;;10.42;66.55;100302.16;3606692;39;20407;-64
2023/12/10 07:41:04;;;;;;;12.27;3.22;;;;;;;10.40;67.15;100287.97;3606877;39;20355;-63
2023/12/10 07:43:31;;;;;;;19.08;4.28;;;;;;;10.41;67.27;100300.44;3606846;39;20112;-63
2023/12/10 07:45:57;;;;;;;22.30;4.03;;;;;;;10.40;66.78;100304.09;3604459;39;21275;-63
2023/12/10 07:48:22;;;;;;;20.88;4.63;;;;;;;10.38;67.55;100316.78;3604780;39;20314;-63
2023/12/10 07:50:49;;;;;;;17.75;4.03;;;;;;;10.40;67.45;100313.97;3605035;39;20050;-64
2023/12/10 07:53:16;;;;;;;17.33;4.00;;;;;;;10.25;67.70;100297.06;3609036;39;20078;-63
2023/12/10 07:55:42;;;;;;;16.77;4.40;;;;;;;10.39;68.08;100334.59;3604484;39;20399;-63
2023/12/10 07:58:08;;;;;;;18.35;4.57;;;;;;;10.36;68.63;100334.81;3605537;39;20119;-63
2023/12/10 08:00:34;;;;;;;21.05;4.88;;;;;;;10.35;69.00;100333.09;3606755;39;20318;-63
2023/12/10 08:02:59;;;;;;;19.90;5.65;;;;;;;10.39;68.99;100334.59;3608629;39;20422;-63
2023/12/10 08:05:25;;;;;;;17.27;5.50;;;;;;;10.35;68.97;100346.53;3606035;39;20476;-63
2023/12/10 08:07:51;;;;;;;22.55;5.18;;;;;;;10.35;69.14;100343.00;3607832;39;20082;-63
2023/12/10 08:10:18;;;;;;;20.73;4.15;;;;;;;10.36;69.58;100336.63;3601150;39;20072;-63
2023/12/10 08:12:44;;;;;;;16.83;4.28;;;;;;;10.34;69.39;100339.44;3607921;39;20383;-63
2023/12/10 08:15:10;;;;;;;18.83;4.25;;;;;;;10.35;69.58;100343.84;3609568;39;20059;-62
2023/12/10 08:17:36;;;;;;;20.75;4.13;;;;;;;10.34;69.56;100354.69;3608917;39;20069;-62
2023/12/10 08:20:04;;;;;;;17.23;3.95;;;;;;;10.36;70.21;100355.44;3607499;39;20062;-63
2023/12/10 08:22:31;;;;;;;22.65;4.22;;;;;;;10.33;70.16;100356.50;3608757;39;20051;-63
2023/12/10 08:24:56;;;;;;;18.05;4.10;;;;;;;10.32;69.78;100357.50;3606870;39;20069;-62
2023/12/10 08:27:22;;;;;;;22.52;3.47;;;;;;;10.38;70.16;100375.88;3608924;39;20066;-63
2023/12/10 08:29:48;;;;;;;19.70;3.90;;;;;;;10.37;71.04;100381.34;3607664;39;20081;-63
2023/12/10 08:32:14;;;;;;;23.67;3.90;;;;;;;10.35;70.38;100378.78;3609471;39;20315;-63
2023/12/10 08:34:39;;;;;;;20.42;3.80;;;;;;;10.37;70.87;100387.59;3609876;39;20119;-63
2023/12/10 08:37:07;;;;;;;15.77;4.05;;;;;;;9.85;70.70;100302.44;3607989;39;20089;-63
2023/12/10 08:39:32;;;;;;;18.67;4.15;;;;;;;10.35;71.27;100402.09;3608832;39;20061;-63
2023/12/10 08:41:58;;;;;;;16.95;4.45;;;;;;;10.35;70.50;100389.53;3608432;39;20062;-63
2023/12/10 08:44:25;;;;;;;19.15;4.35;;;;;;;10.37;70.45;100401.03;3607982;39;20062;-63
2023/12/10 08:46:51;;;;;;;18.33;3.85;;;;;;;10.38;70.33;100388.47;3599933;39;20073;-62
2023/12/10 08:49:17;;;;;;;19.60;4.03;;;;;;;10.38;70.69;100392.00;3612310;39;20094;-63
2023/12/10 08:51:44;;;;;;;20.52;3.78;;;;;;;10.17;70.18;100361.19;3607328;39;20050;-63
2023/12/10 08:54:09;;;;;;;22.35;4.13;;;;;;;10.34;71.32;100395.88;3608826;39;20119;-63
2023/12/10 08:56:36;;;;;;;16.08;3.83;;;;;;;10.26;70.92;100392.81;3609589;39;20447;-63
2023/12/10 08:59:03;;;;;;;21.35;4.18;;;;;;;10.34;71.35;100412.00;3609527;39;20124;-63
2023/12/10 09:01:28;;;;;;;20.05;5.40;;;;;;;10.33;71.23;100414.75;3608759;39;20058;-63
2023/12/10 09:03:54;;;;;;;22.05;4.05;;;;;;;10.25;71.08;100400.97;3605473;39;20105;-63
2023/12/10 09:06:20;;;;;;;25.35;4.32;;;;;;;10.29;71.34;100408.75;3612946;39;20047;-63
2023/12/10 09:08:46;;;;;;;20.88;4.30;;;;;;;10.30;71.50;100420.34;3611013;39;20084;-62
2023/12/10 09:11:12;;;;;;;19.38;3.90;;;;;;;10.30;71.92;100426.56;3610488;39;20351;-63
2023/12/10 09:13:37;;;;;;;19.50;3.50;;;;;;;10.28;72.31;100415.09;3611431;39;20081;-64
2023/12/10 09:16:04;;;;;;;16.58;4.35;;;;;;;9.97;72.23;100370.59;3610662;39;20319;-63
2023/12/10 09:18:29;;;;;;;21.50;4.10;;;;;;;10.32;72.55;100426.47;3612430;39;20043;-64
2023/12/10 09:20:55;;;;;;;19.83;4.20;;;;;;;10.32;72.18;100430.03;3611303;39;20082;-63
2023/12/10 09:23:21;;;;;;;20.65;4.60;;;;;;;10.34;72.19;100435.28;3608631;39;20295;-63
2023/12/10 09:25:48;;;;;;;22.88;5.30;;;;;;;10.41;72.09;100428.56;3611559;39;20043;-63
2023/12/10 09:28:13;;;;;;;22.58;4.85;;;;;;;10.47;71.93;100421.91;3599372;39;20051;-63
2023/12/10 09:30:40;;;;;;;21.05;4.35;;;;;;;10.51;71.91;100431.47;3611978;39;20074;-63
2023/12/10 09:33:06;;;;;;;20.20;3.83;;;;;;;10.52;71.61;100430.50;3610163;39;20062;-63
2023/12/10 09:35:32;;;;;;;16.70;3.67;;;;;;;10.53;71.85;100429.53;3611313;39;20051;-62
2023/12/10 09:37:57;;;;;;;19.70;3.65;;;;;;;10.55;72.03;100432.97;3602972;39;20135;-62
2023/12/10 09:40:23;;;;;;;16.90;3.85;;;;;;;10.60;72.05;100433.53;3611525;39;20430;-63
2023/12/10 09:42:49;;;;;;;24.02;5.30;;;;;;;10.60;72.84;100433.53;3612182;39;20047;-63
2023/12/10 09:45:14;;;;;;;20.45;3.83;;;;;;;10.63;72.54;100433.34;3609585;39;20406;-63
2023/12/10 09:47:44;;;;;;;23.50;4.15;;;;;;;10.64;72.84;100432.34;3607842;39;20316;-63
2023/12/10 09:50:10;;;;;;;19.45;3.85;;;;;;;10.52;72.21;100398.25;3609046;39;20347;-63
2023/12/10 09:52:36;;;;;;;20.13;4.15;;;;;;;10.69;72.00;100433.78;3611547;39;20046;-63
2023/12/10 09:55:02;;;;;;;20.38;3.85;;;;;;;10.71;72.39;100436.34;3611318;39;21632;-63
2023/12/10 09:57:30;;;;;;;24.98;4.80;;;;;;;10.74;72.55;100437.97;3612410;39;20051;-64
2023/12/10 09:59:56;;;;;;;18.95;3.92;;;;;;;10.79;72.31;100434.00;3611862;39;20044;-64
2023/12/10 10:02:30;;;;;;;15.07;3.17;;;;;;;10.86;72.18;100429.06;3611445;39;20057;-64
2023/12/10 10:04:55;;;;;;;19.35;4.00;;;;;;;10.86;72.70;100442.50;3608218;39;20368;-65
2023/12/10 10:07:21;;;;;;;21.15;4.45;;;;;;;10.91;72.71;100426.91;3611985;39;20062;-64
2023/12/10 10:09:47;;;;;;;18.88;3.80;;;;;;;10.92;72.37;100429.47;3612277;39;20058;-63
2023/12/10 10:12:14;;;;;;;21.88;4.45;;;;;;;11.00;72.78;100437.00;3598866;39;20141;-64
2023/12/10 10:14:55;;;;;;;20.25;4.38;;;;;;;11.03;72.33;100425.19;3612288;39;20038;-63
2023/12/10 10:17:28;;;;;;;13.55;3.45;;;;;;;11.10;72.14;100426.47;3614953;39;20083;-64
2023/12/10 10:19:55;;;;;;;19.65;4.05;;;;;;;11.18;71.56;100396.34;3615350;39;20305;-64
2023/12/10 10:22:26;;;;;;;20.17;3.80;;;;;;;11.46;69.92;100411.38;3611212;39;20082;-64
2023/12/10 10:24:53;;;;;;;24.65;4.38;;;;;;;11.53;70.39;100415.34;3610569;39;20420;-63
2023/12/10 10:27:19;;;;;;;17.20;3.25;;;;;;;11.68;69.72;100411.53;3608012;39;20051;-63
2023/12/10 10:29:45;;;;;;;21.42;4.00;;;;;;;11.33;69.98;100342.28;3609238;39;20043;-64
2023/12/10 10:32:18;;;;;;;17.25;3.58;;;;;;;11.97;68.53;100416.63;3607403;39;20043;-63
2023/12/10 10:34:46;;;;;;;17.40;3.60;;;;;;;12.11;68.14;100431.75;3610040;39;20409;-64
2023/12/10 10:37:13;;;;;;;22.15;3.97;;;;;;;9.83;67.73;100030.59;3607076;39;20105;-64
2023/12/10 10:39:39;;;;;;;15.65;3.58;;;;;;;12.30;67.39;100432.97;3601398;39;20427;-64
2023/12/10 10:42:08;;;;;;;15.88;3.92;;;;;;;12.44;66.89;100431.06;3608216;39;20042;-64
2023/12/10 10:44:36;;;;;;;16.45;3.65;;;;;;;12.42;66.84;100422.22;3610738;39;20062;-65
2023/12/10 10:47:08;;;;;;;17.85;3.55;;;;;;;12.71;66.27;100436.16;3610862;39;20062;-65
2023/12/10 10:49:45;;;;;;;13.63;3.15;;;;;;;12.73;64.73;100431.53;3612202;39;20043;-65
2023/12/10 10:52:21;;;;;;;16.05;3.92;;;;;;;12.65;65.03;100432.09;3608874;39;20066;-64
2023/12/10 10:54:48;;;;;;;18.85;3.72;;;;;;;12.65;65.14;100437.50;3610796;39;20397;-64
2023/12/10 10:57:36;;;;;;;13.60;3.47;;;;;;;12.72;65.00;100425.28;3608424;39;20063;-65
2023/12/10 11:00:34;;;;;;;20.30;3.70;;;;;;;12.96;64.34;100422.50;3607606;39;20046;-64
2023/12/10 11:03:03;;;;;;;16.77;3.72;;;;;;;13.08;63.35;100430.63;3600674;39;20119;-65
2023/12/10 11:05:36;;;;;;;14.95;3.30;;;;;;;13.12;63.08;100427.56;3610625;39;20079;-65
2023/12/10 11:08:07;;;;;;;13.27;3.70;;;;;;;12.94;63.13;100427.19;3607817;39;20071;-65
2023/12/10 11:10:34;;;;;;;15.50;2.92;;;;;;;12.73;63.92;100416.19;3608666;39;20066;-64
2023/12/10 11:13:00;;;;;;;12.93;3.05;;;;;;;12.60;63.76;100417.28;3606335;39;20043;-65
2023/12/10 11:15:30;;;;;;;11.52;3.15;;;;;;;12.50;64.67;100430.59;3611973;39;20134;-65
2023/12/10 11:17:59;;;;;;;15.65;3.15;;;;;;;12.52;64.78;100407.06;3612669;39;20047;-65